sensor_id;sensor_type;location;lat;lon;timestamp;P1;durP1;ratioP1;P2;durP2;ratioP2
39410;SDS011;26579;43.238;23.124;2023-04-08T00:02:24;23.63;;;15.63;;
39410;SDS011;26579;43.238;23.124;2023-04-08T00:04:50;31.73;;;18.90;;
39410;SDS011;26579;43.238;23.124;2023-04-08T00:07:15;39.40;;;22.23;;
39410;SDS011;26579;43.238;23.124;2023-04-08T00:09:41;46.45;;;24.92;;
39410;SDS011;26579;43.238;23.124;2023-04-08T00:12:07;44.63;;;24.05;;
39410;SDS011;26579;43.238;23.124;2023-04-08T00:14:32;36.65;;;20.50;;
39410;SDS011;26579;43.238;23.124;2023-04-08T00:16:59;31.67;;;18.10;;
39410;SDS011;26579;43.238;23.124;2023-04-08T00:19:24;34.17;;;18.52;;
39410;SDS011;26579;43.238;23.124;2023-04-08T00:21:50;29.63;;;17.55;;
39410;SDS011;26579;43.238;23.124;2023-04-08T00:24:16;33.63;;;17.63;;
39410;SDS011;26579;43.238;23.124;2023-04-08T00:26:41;24.63;;;15.23;;
39410;SDS011;26579;43.238;23.124;2023-04-08T00:29:07;23.02;;;14.32;;
39410;SDS011;26579;43.238;23.124;2023-04-08T00:31:33;22.15;;;13.18;;
39410;SDS011;26579;43.238;23.124;2023-04-08T00:33:58;19.85;;;12.52;;
39410;SDS011;26579;43.238;23.124;2023-04-08T00:36:24;27.40;;;14.30;;
39410;SDS011;26579;43.238;23.124;2023-04-08T00:38:51;33.88;;;21.70;;
39410;SDS011;26579;43.238;23.124;2023-04-08T00:41:16;27.85;;;16.33;;
39410;SDS011;26579;43.238;23.124;2023-04-08T00:43:42;24.23;;;14.00;;
39410;SDS011;26579;43.238;23.124;2023-04-08T00:46:08;28.60;;;14.70;;
39410;SDS011;26579;43.238;23.124;2023-04-08T00:48:34;26.33;;;14.02;;
39410;SDS011;26579;43.238;23.124;2023-04-08T00:50:59;22.33;;;12.27;;
39410;SDS011;26579;43.238;23.124;2023-04-08T00:53:25;20.83;;;13.23;;
39410;SDS011;26579;43.238;23.124;2023-04-08T00:55:51;22.83;;;13.13;;
39410;SDS011;26579;43.238;23.124;2023-04-08T00:58:17;24.08;;;15.02;;
39410;SDS011;26579;43.238;23.124;2023-04-08T01:00:45;35.28;;;23.58;;
39410;SDS011;26579;43.238;23.124;2023-04-08T01:03:41;28.52;;;18.58;;
39410;SDS011;26579;43.238;23.124;2023-04-08T01:06:37;35.50;;;18.30;;
39410;SDS011;26579;43.238;23.124;2023-04-08T01:09:08;32.33;;;18.50;;
39410;SDS011;26579;43.238;23.124;2023-04-08T01:11:36;29.52;;;16.80;;
39410;SDS011;26579;43.238;23.124;2023-04-08T01:14:06;28.63;;;17.90;;
39410;SDS011;26579;43.238;23.124;2023-04-08T01:16:33;29.02;;;17.65;;
39410;SDS011;26579;43.238;23.124;2023-04-08T01:19:01;30.52;;;17.95;;
39410;SDS011;26579;43.238;23.124;2023-04-08T01:21:27;27.65;;;17.08;;
39410;SDS011;26579;43.238;23.124;2023-04-08T01:23:57;25.25;;;16.63;;
39410;SDS011;26579;43.238;23.124;2023-04-08T01:26:30;25.20;;;16.50;;
39410;SDS011;26579;43.238;23.124;2023-04-08T01:28:58;29.83;;;18.25;;
39410;SDS011;26579;43.238;23.124;2023-04-08T01:31:26;25.95;;;17.02;;
39410;SDS011;26579;43.238;23.124;2023-04-08T01:33:52;30.65;;;18.50;;
39410;SDS011;26579;43.238;23.124;2023-04-08T01:36:20;33.67;;;20.77;;
39410;SDS011;26579;43.238;23.124;2023-04-08T01:38:48;29.30;;;17.92;;
39410;SDS011;26579;43.238;23.124;2023-04-08T01:41:15;31.00;;;17.63;;
39410;SDS011;26579;43.238;23.124;2023-04-08T01:43:42;30.05;;;17.10;;
39410;SDS011;26579;43.238;23.124;2023-04-08T01:46:09;24.88;;;15.55;;
39410;SDS011;26579;43.238;23.124;2023-04-08T01:48:37;25.35;;;15.75;;
39410;SDS011;26579;43.238;23.124;2023-04-08T01:51:03;23.83;;;14.48;;
39410;SDS011;26579;43.238;23.124;2023-04-08T01:53:30;23.88;;;14.43;;
39410;SDS011;26579;43.238;23.124;2023-04-08T01:56:03;24.35;;;15.10;;
39410;SDS011;26579;43.238;23.124;2023-04-08T01:58:37;23.88;;;14.95;;
39410;SDS011;26579;43.238;23.124;2023-04-08T02:01:08;25.25;;;14.07;;
39410;SDS011;26579;43.238;23.124;2023-04-08T02:03:36;31.25;;;16.58;;
39410;SDS011;26579;43.238;23.124;2023-04-08T02:06:04;26.30;;;14.93;;
39410;SDS011;26579;43.238;23.124;2023-04-08T02:08:29;27.00;;;16.02;;
39410;SDS011;26579;43.238;23.124;2023-04-08T02:10:57;26.40;;;15.15;;
39410;SDS011;26579;43.238;23.124;2023-04-08T02:13:23;21.30;;;13.38;;
39410;SDS011;26579;43.238;23.124;2023-04-08T02:15:50;21.40;;;14.25;;
39410;SDS011;26579;43.238;23.124;2023-04-08T02:18:21;25.40;;;14.75;;
39410;SDS011;26579;43.238;23.124;2023-04-08T02:20:53;22.30;;;14.20;;
39410;SDS011;26579;43.238;23.124;2023-04-08T02:23:28;23.65;;;14.80;;
39410;SDS011;26579;43.238;23.124;2023-04-08T02:25:58;24.50;;;15.13;;
39410;SDS011;26579;43.238;23.124;2023-04-08T02:28:26;23.48;;;15.13;;
39410;SDS011;26579;43.238;23.124;2023-04-08T02:30:54;23.23;;;14.82;;
39410;SDS011;26579;43.238;23.124;2023-04-08T02:33:22;23.23;;;14.23;;
39410;SDS011;26579;43.238;23.124;2023-04-08T02:35:51;25.10;;;15.20;;
39410;SDS011;26579;43.238;23.124;2023-04-08T02:38:17;25.33;;;15.10;;
39410;SDS011;26579;43.238;23.124;2023-04-08T02:40:43;27.88;;;16.17;;
39410;SDS011;26579;43.238;23.124;2023-04-08T02:43:09;24.40;;;15.48;;
39410;SDS011;26579;43.238;23.124;2023-04-08T02:45:38;25.63;;;16.20;;
39410;SDS011;26579;43.238;23.124;2023-04-08T02:48:07;29.88;;;17.52;;
39410;SDS011;26579;43.238;23.124;2023-04-08T02:50:33;26.23;;;17.17;;
39410;SDS011;26579;43.238;23.124;2023-04-08T02:52:59;27.83;;;17.10;;
39410;SDS011;26579;43.238;23.124;2023-04-08T02:55:25;25.20;;;16.45;;
39410;SDS011;26579;43.238;23.124;2023-04-08T02:57:51;30.75;;;16.77;;
39410;SDS011;26579;43.238;23.124;2023-04-08T03:00:17;25.98;;;15.85;;
39410;SDS011;26579;43.238;23.124;2023-04-08T03:02:42;29.58;;;17.38;;
39410;SDS011;26579;43.238;23.124;2023-04-08T03:05:08;29.65;;;17.52;;
39410;SDS011;26579;43.238;23.124;2023-04-08T03:07:34;28.90;;;18.10;;
39410;SDS011;26579;43.238;23.124;2023-04-08T03:10:01;25.90;;;16.23;;
39410;SDS011;26579;43.238;23.124;2023-04-08T03:12:27;25.75;;;15.68;;
39410;SDS011;26579;43.238;23.124;2023-04-08T03:14:52;29.45;;;18.90;;
39410;SDS011;26579;43.238;23.124;2023-04-08T03:17:18;26.33;;;16.25;;
39410;SDS011;26579;43.238;23.124;2023-04-08T03:19:44;24.98;;;16.27;;
39410;SDS011;26579;43.238;23.124;2023-04-08T03:22:10;28.13;;;16.58;;
39410;SDS011;26579;43.238;23.124;2023-04-08T03:24:35;26.83;;;16.77;;
39410;SDS011;26579;43.238;23.124;2023-04-08T03:27:02;35.53;;;16.98;;
39410;SDS011;26579;43.238;23.124;2023-04-08T03:29:28;26.40;;;15.73;;
39410;SDS011;26579;43.238;23.124;2023-04-08T03:31:53;26.70;;;16.17;;
39410;SDS011;26579;43.238;23.124;2023-04-08T03:34:19;38.40;;;20.67;;
39410;SDS011;26579;43.238;23.124;2023-04-08T03:36:45;36.05;;;20.20;;
39410;SDS011;26579;43.238;23.124;2023-04-08T03:39:10;52.70;;;27.70;;
39410;SDS011;26579;43.238;23.124;2023-04-08T03:41:36;55.92;;;29.48;;
39410;SDS011;26579;43.238;23.124;2023-04-08T03:44:02;52.95;;;30.08;;
39410;SDS011;26579;43.238;23.124;2023-04-08T03:46:28;64.65;;;27.02;;
39410;SDS011;26579;43.238;23.124;2023-04-08T03:48:53;39.00;;;23.40;;
39410;SDS011;26579;43.238;23.124;2023-04-08T03:51:19;36.45;;;22.98;;
39410;SDS011;26579;43.238;23.124;2023-04-08T03:53:45;35.70;;;22.90;;
39410;SDS011;26579;43.238;23.124;2023-04-08T03:56:11;34.92;;;22.02;;
39410;SDS011;26579;43.238;23.124;2023-04-08T03:58:36;35.17;;;22.60;;
39410;SDS011;26579;43.238;23.124;2023-04-08T04:01:02;34.97;;;22.48;;
39410;SDS011;26579;43.238;23.124;2023-04-08T04:03:28;39.17;;;22.38;;
39410;SDS011;26579;43.238;23.124;2023-04-08T04:05:53;34.42;;;22.20;;
39410;SDS011;26579;43.238;23.124;2023-04-08T04:08:19;35.33;;;21.25;;
39410;SDS011;26579;43.238;23.124;2023-04-08T04:10:45;37.35;;;21.38;;
39410;SDS011;26579;43.238;23.124;2023-04-08T04:13:11;39.58;;;20.40;;
39410;SDS011;26579;43.238;23.124;2023-04-08T04:15:37;39.13;;;23.77;;
39410;SDS011;26579;43.238;23.124;2023-04-08T04:18:06;33.90;;;21.55;;
39410;SDS011;26579;43.238;23.124;2023-04-08T04:20:32;37.35;;;22.70;;
39410;SDS011;26579;43.238;23.124;2023-04-08T04:22:58;39.55;;;23.65;;
39410;SDS011;26579;43.238;23.124;2023-04-08T04:25:23;36.78;;;20.42;;
39410;SDS011;26579;43.238;23.124;2023-04-08T04:27:49;35.08;;;21.17;;
39410;SDS011;26579;43.238;23.124;2023-04-08T04:30:15;31.33;;;19.45;;
39410;SDS011;26579;43.238;23.124;2023-04-08T04:32:41;35.08;;;20.13;;
39410;SDS011;26579;43.238;23.124;2023-04-08T04:35:08;35.80;;;21.98;;
39410;SDS011;26579;43.238;23.124;2023-04-08T04:37:34;31.67;;;18.90;;
39410;SDS011;26579;43.238;23.124;2023-04-08T04:40:00;31.02;;;18.50;;
39410;SDS011;26579;43.238;23.124;2023-04-08T04:42:26;33.55;;;20.52;;
39410;SDS011;26579;43.238;23.124;2023-04-08T04:44:52;41.03;;;27.40;;
39410;SDS011;26579;43.238;23.124;2023-04-08T04:47:17;64.78;;;43.45;;
39410;SDS011;26579;43.238;23.124;2023-04-08T04:49:43;63.17;;;38.72;;
39410;SDS011;26579;43.238;23.124;2023-04-08T04:52:09;36.88;;;24.33;;
39410;SDS011;26579;43.238;23.124;2023-04-08T04:54:35;30.70;;;19.67;;
39410;SDS011;26579;43.238;23.124;2023-04-08T04:57:00;33.65;;;21.63;;
39410;SDS011;26579;43.238;23.124;2023-04-08T04:59:26;35.65;;;21.42;;
39410;SDS011;26579;43.238;23.124;2023-04-08T05:01:52;40.75;;;24.45;;
39410;SDS011;26579;43.238;23.124;2023-04-08T05:04:18;45.38;;;27.02;;
39410;SDS011;26579;43.238;23.124;2023-04-08T05:06:44;40.13;;;24.80;;
39410;SDS011;26579;43.238;23.124;2023-04-08T05:09:10;37.88;;;22.13;;
39410;SDS011;26579;43.238;23.124;2023-04-08T05:11:36;37.95;;;22.45;;
39410;SDS011;26579;43.238;23.124;2023-04-08T05:14:02;36.63;;;23.48;;
39410;SDS011;26579;43.238;23.124;2023-04-08T05:16:28;46.70;;;26.00;;
39410;SDS011;26579;43.238;23.124;2023-04-08T05:18:54;43.55;;;26.00;;
39410;SDS011;26579;43.238;23.124;2023-04-08T05:21:20;43.20;;;27.42;;
39410;SDS011;26579;43.238;23.124;2023-04-08T05:23:45;42.03;;;27.10;;
39410;SDS011;26579;43.238;23.124;2023-04-08T05:26:11;44.45;;;25.70;;
39410;SDS011;26579;43.238;23.124;2023-04-08T05:28:37;44.20;;;27.67;;
39410;SDS011;26579;43.238;23.124;2023-04-08T05:31:03;50.80;;;31.80;;
39410;SDS011;26579;43.238;23.124;2023-04-08T05:33:29;62.30;;;36.78;;
39410;SDS011;26579;43.238;23.124;2023-04-08T05:35:55;70.97;;;39.08;;
39410;SDS011;26579;43.238;23.124;2023-04-08T05:38:21;62.95;;;36.17;;
39410;SDS011;26579;43.238;23.124;2023-04-08T05:40:47;56.35;;;35.40;;
39410;SDS011;26579;43.238;23.124;2023-04-08T05:43:13;57.95;;;36.05;;
39410;SDS011;26579;43.238;23.124;2023-04-08T05:45:42;57.00;;;37.03;;
39410;SDS011;26579;43.238;23.124;2023-04-08T05:48:08;61.22;;;35.28;;
39410;SDS011;26579;43.238;23.124;2023-04-08T05:50:34;61.50;;;37.63;;
39410;SDS011;26579;43.238;23.124;2023-04-08T05:53:00;58.88;;;36.30;;
39410;SDS011;26579;43.238;23.124;2023-04-08T05:55:26;63.67;;;38.92;;
39410;SDS011;26579;43.238;23.124;2023-04-08T05:57:52;62.63;;;37.85;;
39410;SDS011;26579;43.238;23.124;2023-04-08T06:00:18;46.03;;;28.95;;
39410;SDS011;26579;43.238;23.124;2023-04-08T06:02:44;46.97;;;30.27;;
39410;SDS011;26579;43.238;23.124;2023-04-08T06:05:09;48.83;;;30.83;;
39410;SDS011;26579;43.238;23.124;2023-04-08T06:07:35;48.55;;;28.45;;
39410;SDS011;26579;43.238;23.124;2023-04-08T06:10:01;55.00;;;31.63;;
39410;SDS011;26579;43.238;23.124;2023-04-08T06:12:27;38.03;;;22.85;;
39410;SDS011;26579;43.238;23.124;2023-04-08T06:14:56;31.73;;;21.98;;
39410;SDS011;26579;43.238;23.124;2023-04-08T06:17:22;36.05;;;22.80;;
39410;SDS011;26579;43.238;23.124;2023-04-08T06:19:48;66.90;;;37.85;;
39410;SDS011;26579;43.238;23.124;2023-04-08T06:22:14;79.68;;;48.50;;
39410;SDS011;26579;43.238;23.124;2023-04-08T06:24:39;85.07;;;50.60;;
39410;SDS011;26579;43.238;23.124;2023-04-08T06:27:06;100.65;;;66.25;;
39410;SDS011;26579;43.238;23.124;2023-04-08T06:29:31;77.63;;;49.80;;
39410;SDS011;26579;43.238;23.124;2023-04-08T06:31:57;85.88;;;53.22;;
39410;SDS011;26579;43.238;23.124;2023-04-08T06:34:23;62.05;;;43.53;;
39410;SDS011;26579;43.238;23.124;2023-04-08T06:36:49;59.63;;;36.72;;
39410;SDS011;26579;43.238;23.124;2023-04-08T06:39:15;47.33;;;32.05;;
39410;SDS011;26579;43.238;23.124;2023-04-08T06:41:40;47.28;;;31.75;;
39410;SDS011;26579;43.238;23.124;2023-04-08T06:44:19;46.08;;;27.48;;
39410;SDS011;26579;43.238;23.124;2023-04-08T06:46:44;40.03;;;26.73;;
39410;SDS011;26579;43.238;23.124;2023-04-08T06:49:10;37.35;;;25.95;;
39410;SDS011;26579;43.238;23.124;2023-04-08T06:51:37;36.78;;;23.65;;
39410;SDS011;26579;43.238;23.124;2023-04-08T06:54:02;40.55;;;23.88;;
39410;SDS011;26579;43.238;23.124;2023-04-08T06:56:28;36.53;;;24.40;;
39410;SDS011;26579;43.238;23.124;2023-04-08T06:58:54;35.17;;;22.73;;
39410;SDS011;26579;43.238;23.124;2023-04-08T07:01:19;35.05;;;21.80;;
39410;SDS011;26579;43.238;23.124;2023-04-08T07:03:45;38.00;;;24.95;;
39410;SDS011;26579;43.238;23.124;2023-04-08T07:06:11;44.10;;;25.52;;
39410;SDS011;26579;43.238;23.124;2023-04-08T07:08:36;34.63;;;23.45;;
39410;SDS011;26579;43.238;23.124;2023-04-08T07:11:02;29.52;;;20.33;;
39410;SDS011;26579;43.238;23.124;2023-04-08T07:13:28;31.00;;;20.08;;
39410;SDS011;26579;43.238;23.124;2023-04-08T07:15:54;35.63;;;23.67;;
39410;SDS011;26579;43.238;23.124;2023-04-08T07:18:19;34.58;;;22.58;;
39410;SDS011;26579;43.238;23.124;2023-04-08T07:20:49;33.88;;;22.20;;
39410;SDS011;26579;43.238;23.124;2023-04-08T07:23:15;30.50;;;21.20;;
39410;SDS011;26579;43.238;23.124;2023-04-08T07:25:41;31.58;;;21.15;;
39410;SDS011;26579;43.238;23.124;2023-04-08T07:28:06;27.20;;;18.20;;
39410;SDS011;26579;43.238;23.124;2023-04-08T07:30:32;25.77;;;18.25;;
39410;SDS011;26579;43.238;23.124;2023-04-08T07:32:57;29.50;;;19.52;;
39410;SDS011;26579;43.238;23.124;2023-04-08T07:35:23;26.38;;;18.83;;
39410;SDS011;26579;43.238;23.124;2023-04-08T07:37:49;27.77;;;20.00;;
39410;SDS011;26579;43.238;23.124;2023-04-08T07:40:15;20.50;;;14.93;;
39410;SDS011;26579;43.238;23.124;2023-04-08T07:42:41;21.23;;;15.10;;
39410;SDS011;26579;43.238;23.124;2023-04-08T07:45:07;24.35;;;15.73;;
39410;SDS011;26579;43.238;23.124;2023-04-08T07:47:33;21.98;;;14.80;;
39410;SDS011;26579;43.238;23.124;2023-04-08T07:49:59;26.30;;;18.08;;
39410;SDS011;26579;43.238;23.124;2023-04-08T07:52:24;26.98;;;18.27;;
39410;SDS011;26579;43.238;23.124;2023-04-08T07:54:50;24.40;;;16.55;;
39410;SDS011;26579;43.238;23.124;2023-04-08T07:57:16;22.17;;;16.35;;
39410;SDS011;26579;43.238;23.124;2023-04-08T07:59:41;25.08;;;17.45;;
39410;SDS011;26579;43.238;23.124;2023-04-08T08:02:07;24.35;;;15.50;;
39410;SDS011;26579;43.238;23.124;2023-04-08T08:04:33;57.28;;;31.33;;
39410;SDS011;26579;43.238;23.124;2023-04-08T08:06:58;23.63;;;16.80;;
39410;SDS011;26579;43.238;23.124;2023-04-08T08:09:24;29.02;;;18.95;;
39410;SDS011;26579;43.238;23.124;2023-04-08T08:11:50;26.85;;;16.92;;
39410;SDS011;26579;43.238;23.124;2023-04-08T08:14:15;24.88;;;16.42;;
39410;SDS011;26579;43.238;23.124;2023-04-08T08:16:41;22.80;;;15.73;;
39410;SDS011;26579;43.238;23.124;2023-04-08T08:19:07;23.23;;;16.45;;
39410;SDS011;26579;43.238;23.124;2023-04-08T08:21:35;21.23;;;14.35;;
39410;SDS011;26579;43.238;23.124;2023-04-08T08:24:01;22.02;;;15.05;;
39410;SDS011;26579;43.238;23.124;2023-04-08T08:26:27;19.15;;;15.05;;
39410;SDS011;26579;43.238;23.124;2023-04-08T08:28:53;21.25;;;15.30;;
39410;SDS011;26579;43.238;23.124;2023-04-08T08:31:19;26.98;;;16.73;;
39410;SDS011;26579;43.238;23.124;2023-04-08T08:33:44;23.58;;;15.15;;
39410;SDS011;26579;43.238;23.124;2023-04-08T08:36:10;25.35;;;13.75;;
39410;SDS011;26579;43.238;23.124;2023-04-08T08:38:36;25.33;;;17.13;;
39410;SDS011;26579;43.238;23.124;2023-04-08T08:41:01;22.20;;;16.27;;
39410;SDS011;26579;43.238;23.124;2023-04-08T08:43:27;24.33;;;15.93;;
39410;SDS011;26579;43.238;23.124;2023-04-08T08:45:53;17.45;;;12.60;;
39410;SDS011;26579;43.238;23.124;2023-04-08T08:48:19;18.98;;;11.85;;
39410;SDS011;26579;43.238;23.124;2023-04-08T08:50:45;18.10;;;11.32;;
39410;SDS011;26579;43.238;23.124;2023-04-08T08:53:11;23.40;;;14.30;;
39410;SDS011;26579;43.238;23.124;2023-04-08T08:55:37;19.83;;;11.85;;
39410;SDS011;26579;43.238;23.124;2023-04-08T08:58:02;16.48;;;11.20;;
39410;SDS011;26579;43.238;23.124;2023-04-08T09:00:35;14.88;;;10.25;;
39410;SDS011;26579;43.238;23.124;2023-04-08T09:03:17;15.52;;;11.35;;
39410;SDS011;26579;43.238;23.124;2023-04-08T09:08:22;24.73;;;14.82;;
39410;SDS011;26579;43.238;23.124;2023-04-08T09:11:14;18.58;;;13.50;;
39410;SDS011;26579;43.238;23.124;2023-04-08T09:13:42;18.38;;;11.95;;
39410;SDS011;26579;43.238;23.124;2023-04-08T09:16:09;18.13;;;12.40;;
39410;SDS011;26579;43.238;23.124;2023-04-08T09:18:37;18.17;;;13.18;;
39410;SDS011;26579;43.238;23.124;2023-04-08T09:21:03;22.27;;;15.00;;
39410;SDS011;26579;43.238;23.124;2023-04-08T09:23:46;22.42;;;14.30;;
39410;SDS011;26579;43.238;23.124;2023-04-08T09:26:15;26.80;;;18.23;;
39410;SDS011;26579;43.238;23.124;2023-04-08T09:31:26;21.80;;;16.17;;
39410;SDS011;26579;43.238;23.124;2023-04-08T09:33:59;24.40;;;15.63;;
39410;SDS011;26579;43.238;23.124;2023-04-08T09:36:33;24.33;;;15.38;;
39410;SDS011;26579;43.238;23.124;2023-04-08T09:38:59;18.15;;;13.25;;
39410;SDS011;26579;43.238;23.124;2023-04-08T09:41:24;19.42;;;13.43;;
39410;SDS011;26579;43.238;23.124;2023-04-08T09:43:53;19.88;;;13.68;;
39410;SDS011;26579;43.238;23.124;2023-04-08T09:49:04;18.77;;;13.38;;
39410;SDS011;26579;43.238;23.124;2023-04-08T09:54:43;19.27;;;14.02;;
39410;SDS011;26579;43.238;23.124;2023-04-08T09:57:20;22.15;;;14.30;;
39410;SDS011;26579;43.238;23.124;2023-04-08T09:59:56;20.13;;;12.93;;
39410;SDS011;26579;43.238;23.124;2023-04-08T10:05:19;20.95;;;14.25;;
39410;SDS011;26579;43.238;23.124;2023-04-08T10:07:46;23.70;;;14.95;;
39410;SDS011;26579;43.238;23.124;2023-04-08T10:10:13;20.52;;;14.63;;
39410;SDS011;26579;43.238;23.124;2023-04-08T10:12:39;16.45;;;12.85;;
39410;SDS011;26579;43.238;23.124;2023-04-08T10:15:23;18.48;;;13.15;;
39410;SDS011;26579;43.238;23.124;2023-04-08T10:25:30;18.92;;;13.63;;
39410;SDS011;26579;43.238;23.124;2023-04-08T10:27:57;21.17;;;13.77;;
39410;SDS011;26579;43.238;23.124;2023-04-08T10:32:55;18.38;;;13.98;;
39410;SDS011;26579;43.238;23.124;2023-04-08T10:35:28;17.80;;;13.15;;
39410;SDS011;26579;43.238;23.124;2023-04-08T10:37:59;20.70;;;14.40;;
39410;SDS011;26579;43.238;23.124;2023-04-08T10:40:26;20.55;;;13.65;;
39410;SDS011;26579;43.238;23.124;2023-04-08T10:42:55;23.15;;;16.20;;
39410;SDS011;26579;43.238;23.124;2023-04-08T10:45:21;17.92;;;12.38;;
39410;SDS011;26579;43.238;23.124;2023-04-08T10:47:47;20.13;;;13.00;;
39410;SDS011;26579;43.238;23.124;2023-04-08T10:50:17;25.45;;;17.42;;
39410;SDS011;26579;43.238;23.124;2023-04-08T10:55:22;20.27;;;14.57;;
39410;SDS011;26579;43.238;23.124;2023-04-08T10:57:49;18.38;;;13.60;;
39410;SDS011;26579;43.238;23.124;2023-04-08T11:00:18;22.27;;;14.43;;
39410;SDS011;26579;43.238;23.124;2023-04-08T11:03:05;23.15;;;16.58;;
39410;SDS011;26579;43.238;23.124;2023-04-08T11:05:35;27.60;;;17.58;;
39410;SDS011;26579;43.238;23.124;2023-04-08T11:08:02;22.63;;;15.50;;
39410;SDS011;26579;43.238;23.124;2023-04-08T11:10:28;22.85;;;15.13;;
39410;SDS011;26579;43.238;23.124;2023-04-08T11:12:55;19.48;;;14.18;;
39410;SDS011;26579;43.238;23.124;2023-04-08T11:15:22;24.30;;;17.80;;
39410;SDS011;26579;43.238;23.124;2023-04-08T11:17:49;23.17;;;17.05;;
39410;SDS011;26579;43.238;23.124;2023-04-08T11:20:15;20.98;;;15.00;;
39410;SDS011;26579;43.238;23.124;2023-04-08T11:22:42;29.63;;;17.48;;
39410;SDS011;26579;43.238;23.124;2023-04-08T11:25:09;23.17;;;16.13;;
39410;SDS011;26579;43.238;23.124;2023-04-08T11:27:35;19.38;;;13.82;;
39410;SDS011;26579;43.238;23.124;2023-04-08T11:30:02;23.10;;;14.38;;
39410;SDS011;26579;43.238;23.124;2023-04-08T11:32:28;20.13;;;14.68;;
39410;SDS011;26579;43.238;23.124;2023-04-08T11:34:54;22.45;;;16.38;;
39410;SDS011;26579;43.238;23.124;2023-04-08T11:37:20;19.25;;;13.35;;
39410;SDS011;26579;43.238;23.124;2023-04-08T11:39:46;20.63;;;14.52;;
39410;SDS011;26579;43.238;23.124;2023-04-08T11:44:57;20.50;;;14.57;;
39410;SDS011;26579;43.238;23.124;2023-04-08T11:47:32;20.90;;;13.88;;
39410;SDS011;26579;43.238;23.124;2023-04-08T11:49:58;19.80;;;14.57;;
39410;SDS011;26579;43.238;23.124;2023-04-08T11:57:52;21.80;;;14.45;;
39410;SDS011;26579;43.238;23.124;2023-04-08T12:00:18;25.48;;;16.27;;
39410;SDS011;26579;43.238;23.124;2023-04-08T12:02:45;24.25;;;16.50;;
39410;SDS011;26579;43.238;23.124;2023-04-08T12:05:11;29.08;;;17.27;;
39410;SDS011;26579;43.238;23.124;2023-04-08T12:07:37;25.15;;;16.50;;
39410;SDS011;26579;43.238;23.124;2023-04-08T12:10:02;19.63;;;13.80;;
39410;SDS011;26579;43.238;23.124;2023-04-08T12:12:28;17.65;;;13.25;;
39410;SDS011;26579;43.238;23.124;2023-04-08T12:14:54;45.33;;;26.40;;
39410;SDS011;26579;43.238;23.124;2023-04-08T12:17:19;45.85;;;25.85;;
39410;SDS011;26579;43.238;23.124;2023-04-08T12:19:45;34.17;;;22.05;;
39410;SDS011;26579;43.238;23.124;2023-04-08T12:22:11;32.20;;;19.38;;
39410;SDS011;26579;43.238;23.124;2023-04-08T12:24:36;21.35;;;13.93;;
39410;SDS011;26579;43.238;23.124;2023-04-08T12:27:02;23.85;;;14.75;;
39410;SDS011;26579;43.238;23.124;2023-04-08T12:29:28;19.45;;;13.48;;
39410;SDS011;26579;43.238;23.124;2023-04-08T12:31:53;18.15;;;13.80;;
39410;SDS011;26579;43.238;23.124;2023-04-08T12:34:19;25.35;;;18.42;;
39410;SDS011;26579;43.238;23.124;2023-04-08T12:36:45;31.20;;;21.85;;
39410;SDS011;26579;43.238;23.124;2023-04-08T12:39:10;33.35;;;27.33;;
39410;SDS011;26579;43.238;23.124;2023-04-08T12:41:36;46.45;;;38.38;;
39410;SDS011;26579;43.238;23.124;2023-04-08T12:44:02;42.72;;;38.15;;
39410;SDS011;26579;43.238;23.124;2023-04-08T12:46:27;29.33;;;25.33;;
39410;SDS011;26579;43.238;23.124;2023-04-08T12:48:53;27.25;;;20.33;;
39410;SDS011;26579;43.238;23.124;2023-04-08T12:51:19;32.17;;;20.73;;
39410;SDS011;26579;43.238;23.124;2023-04-08T12:53:44;27.67;;;19.23;;
39410;SDS011;26579;43.238;23.124;2023-04-08T12:56:10;67.57;;;44.33;;
39410;SDS011;26579;43.238;23.124;2023-04-08T12:58:36;63.70;;;42.15;;
39410;SDS011;26579;43.238;23.124;2023-04-08T13:01:01;61.55;;;43.05;;
39410;SDS011;26579;43.238;23.124;2023-04-08T13:03:27;51.50;;;34.70;;
39410;SDS011;26579;43.238;23.124;2023-04-08T13:05:53;48.15;;;32.00;;
39410;SDS011;26579;43.238;23.124;2023-04-08T13:08:18;48.50;;;34.53;;
39410;SDS011;26579;43.238;23.124;2023-04-08T13:10:44;34.40;;;25.27;;
39410;SDS011;26579;43.238;23.124;2023-04-08T13:13:10;29.08;;;22.77;;
39410;SDS011;26579;43.238;23.124;2023-04-08T13:15:35;34.83;;;24.80;;
39410;SDS011;26579;43.238;23.124;2023-04-08T13:18:01;47.33;;;30.92;;
39410;SDS011;26579;43.238;23.124;2023-04-08T13:20:27;45.83;;;27.33;;
39410;SDS011;26579;43.238;23.124;2023-04-08T13:22:52;48.67;;;30.63;;
39410;SDS011;26579;43.238;23.124;2023-04-08T13:25:18;55.38;;;37.70;;
39410;SDS011;26579;43.238;23.124;2023-04-08T13:27:44;50.67;;;35.03;;
39410;SDS011;26579;43.238;23.124;2023-04-08T13:30:10;61.55;;;41.72;;
39410;SDS011;26579;43.238;23.124;2023-04-08T13:32:36;61.22;;;42.80;;
39410;SDS011;26579;43.238;23.124;2023-04-08T13:35:02;50.47;;;35.15;;
39410;SDS011;26579;43.238;23.124;2023-04-08T13:37:28;48.53;;;34.08;;
39410;SDS011;26579;43.238;23.124;2023-04-08T13:39:53;46.78;;;34.20;;
39410;SDS011;26579;43.238;23.124;2023-04-08T13:42:19;52.88;;;37.83;;
39410;SDS011;26579;43.238;23.124;2023-04-08T13:44:45;45.67;;;33.13;;
39410;SDS011;26579;43.238;23.124;2023-04-08T13:47:10;54.42;;;38.53;;
39410;SDS011;26579;43.238;23.124;2023-04-08T13:49:36;54.67;;;38.33;;
39410;SDS011;26579;43.238;23.124;2023-04-08T13:52:02;53.53;;;34.75;;
39410;SDS011;26579;43.238;23.124;2023-04-08T13:54:28;58.30;;;37.40;;
39410;SDS011;26579;43.238;23.124;2023-04-08T13:56:53;54.97;;;38.47;;
39410;SDS011;26579;43.238;23.124;2023-04-08T13:59:19;58.92;;;37.58;;
39410;SDS011;26579;43.238;23.124;2023-04-08T14:01:45;52.85;;;36.58;;
39410;SDS011;26579;43.238;23.124;2023-04-08T14:04:10;54.40;;;35.65;;
39410;SDS011;26579;43.238;23.124;2023-04-08T14:06:36;59.10;;;36.50;;
39410;SDS011;26579;43.238;23.124;2023-04-08T14:09:02;52.63;;;31.35;;
39410;SDS011;26579;43.238;23.124;2023-04-08T14:11:27;54.20;;;32.78;;
39410;SDS011;26579;43.238;23.124;2023-04-08T14:13:53;50.05;;;30.08;;
39410;SDS011;26579;43.238;23.124;2023-04-08T14:16:19;47.05;;;32.20;;
39410;SDS011;26579;43.238;23.124;2023-04-08T14:18:44;64.53;;;38.75;;
39410;SDS011;26579;43.238;23.124;2023-04-08T14:21:10;45.17;;;30.00;;
39410;SDS011;26579;43.238;23.124;2023-04-08T14:23:36;30.42;;;22.00;;
39410;SDS011;26579;43.238;23.124;2023-04-08T14:26:01;33.25;;;23.85;;
39410;SDS011;26579;43.238;23.124;2023-04-08T14:28:27;39.92;;;27.90;;
39410;SDS011;26579;43.238;23.124;2023-04-08T14:30:53;38.75;;;27.38;;
39410;SDS011;26579;43.238;23.124;2023-04-08T14:33:19;37.05;;;26.58;;
39410;SDS011;26579;43.238;23.124;2023-04-08T14:35:44;50.25;;;32.10;;
39410;SDS011;26579;43.238;23.124;2023-04-08T14:38:10;42.72;;;28.85;;
39410;SDS011;26579;43.238;23.124;2023-04-08T14:40:35;39.33;;;27.52;;
39410;SDS011;26579;43.238;23.124;2023-04-08T14:43:01;41.05;;;28.60;;